createdAt,value
2023-04-01T00:00:58.840Z,76.40
2023-04-01T00:03:26.746Z,76.30
2023-04-01T00:05:55.004Z,76.20
2023-04-01T00:08:21.806Z,76.40
2023-04-01T00:10:48.689Z,76.30
2023-04-01T00:13:15.857Z,76.10
2023-04-01T00:15:43.163Z,75.90
2023-04-01T00:18:10.271Z,75.90
2023-04-01T00:20:37.063Z,76.00
2023-04-01T00:23:03.990Z,76.10
2023-04-01T00:25:31.185Z,75.90
2023-04-01T00:27:58.182Z,75.90
2023-04-01T00:30:25.012Z,76.00
2023-04-01T00:32:54.870Z,76.20
2023-04-01T00:35:21.773Z,76.00
2023-04-01T00:37:48.531Z,76.10
2023-04-01T00:40:35.568Z,76.20
2023-04-01T00:43:02.467Z,76.10
2023-04-01T00:45:32.362Z,76.10
2023-04-01T00:48:01.050Z,76.10
2023-04-01T00:50:27.948Z,76.20
2023-04-01T00:52:54.706Z,77.10
2023-04-01T00:55:21.764Z,76.30
2023-04-01T00:57:48.496Z,76.30
2023-04-01T01:00:16.067Z,76.40
2023-04-01T01:02:44.020Z,76.30
2023-04-01T01:05:18.489Z,76.40
2023-04-01T01:08:16.942Z,76.40
2023-04-01T01:10:44.012Z,76.40
2023-04-01T01:13:20.056Z,76.50
2023-04-01T01:15:58.739Z,76.50
2023-04-01T01:18:42.397Z,76.50
2023-04-01T01:21:21.050Z,76.20
2023-04-01T01:24:11.989Z,76.40
2023-04-01T01:27:11.537Z,76.40
2023-04-01T01:30:00.563Z,76.30
2023-04-01T01:32:52.242Z,76.40
2023-04-01T01:35:23.619Z,76.70
2023-04-01T01:37:53.620Z,76.90
2023-04-01T01:40:20.483Z,76.90
2023-04-01T01:42:50.563Z,76.60
2023-04-01T01:45:19.288Z,76.50
2023-04-01T01:47:46.405Z,76.50
2023-04-01T01:50:13.649Z,76.50
2023-04-01T01:52:40.475Z,76.70
2023-04-01T01:55:44.322Z,76.60
2023-04-01T01:58:15.581Z,76.70
2023-04-01T02:00:44.417Z,76.70
2023-04-01T02:03:11.919Z,76.80
2023-04-01T02:05:38.840Z,76.90
2023-04-01T02:08:17.503Z,76.80
2023-04-01T02:10:47.290Z,77.00
2023-04-01T02:13:48.707Z,76.90
2023-04-01T02:16:37.736Z,76.90
2023-04-01T02:19:08.437Z,77.00
2023-04-01T02:21:35.451Z,76.90
2023-04-01T02:24:03.315Z,76.70
2023-04-01T02:26:30.104Z,76.60
2023-04-01T02:28:56.839Z,76.80
2023-04-01T02:31:23.714Z,76.60
2023-04-01T02:33:50.620Z,76.70
2023-04-01T02:36:17.607Z,76.50
2023-04-01T02:38:45.624Z,76.50
2023-04-01T02:41:12.437Z,76.70
2023-04-01T02:43:39.243Z,76.60
2023-04-01T02:46:07.156Z,76.70
2023-04-01T02:48:33.914Z,76.90
2023-04-01T02:51:00.711Z,76.90
2023-04-01T02:53:27.423Z,76.90
2023-04-01T02:55:54.247Z,76.90
2023-04-01T02:58:21.028Z,77.00
2023-04-01T03:00:47.828Z,77.10
2023-04-01T03:03:14.772Z,77.00
2023-04-01T03:05:41.574Z,77.10
2023-04-01T03:08:08.388Z,77.10
2023-04-01T03:10:35.384Z,77.90
2023-04-01T03:13:02.156Z,77.10
2023-04-01T03:15:28.945Z,76.90
2023-04-01T03:17:55.833Z,77.10
2023-04-01T03:20:22.614Z,77.10
2023-04-01T03:22:49.395Z,77.30
2023-04-01T03:25:16.491Z,77.30
2023-04-01T03:27:43.264Z,77.40
2023-04-01T03:30:10.610Z,77.60
2023-04-01T03:32:37.579Z,78.10
2023-04-01T03:35:05.524Z,77.30
2023-04-01T03:37:33.032Z,77.10
2023-04-01T03:39:59.850Z,76.90
2023-04-01T03:42:26.644Z,76.70
2023-04-01T03:44:53.514Z,77.10
2023-04-01T03:47:20.249Z,77.20
2023-04-01T03:49:47.035Z,78.00
2023-04-01T03:52:13.922Z,77.10
2023-04-01T03:54:40.861Z,77.00
2023-04-01T03:57:07.831Z,77.00
2023-04-01T03:59:34.857Z,77.00
2023-04-01T04:02:01.663Z,77.10
2023-04-01T04:04:28.781Z,77.10
2023-04-01T04:06:55.870Z,77.00
2023-04-01T04:09:22.874Z,77.10
2023-04-01T04:11:50.365Z,77.20
2023-04-01T04:14:17.297Z,77.50
2023-04-01T04:16:44.091Z,77.20
2023-04-01T04:19:10.942Z,77.00
2023-04-01T04:21:37.765Z,77.10
2023-04-01T04:24:04.863Z,77.20
2023-04-01T04:26:31.656Z,77.10
2023-04-01T04:28:58.623Z,77.30
2023-04-01T04:31:25.925Z,77.50
2023-04-01T04:33:53.362Z,77.50
2023-04-01T04:36:20.310Z,77.40
2023-04-01T04:38:47.425Z,77.40
2023-04-01T04:41:15.289Z,77.60
2023-04-01T04:43:42.114Z,77.40
2023-04-01T04:46:10.039Z,77.50
2023-04-01T04:48:36.955Z,77.40
2023-04-01T04:51:04.200Z,77.70
2023-04-01T04:53:31.245Z,77.70
2023-04-01T04:55:58.060Z,77.80
2023-04-01T04:58:24.817Z,77.90
2023-04-01T05:00:51.600Z,77.60
2023-04-01T05:03:18.439Z,77.70
2023-04-01T05:05:54.657Z,77.70
2023-04-01T05:08:21.574Z,77.70
2023-04-01T05:10:48.381Z,77.60
2023-04-01T05:13:15.120Z,77.50
2023-04-01T05:15:41.943Z,77.70
2023-04-01T05:18:08.717Z,77.70
2023-04-01T05:20:35.553Z,77.70
2023-04-01T05:23:02.593Z,77.70
2023-04-01T05:25:29.419Z,77.70
2023-04-01T05:27:56.247Z,77.70
2023-04-01T05:30:23.046Z,77.70
2023-04-01T05:32:49.970Z,77.90
2023-04-01T05:35:16.875Z,77.90
2023-04-01T05:37:43.706Z,78.00
2023-04-01T05:40:11.205Z,78.00
2023-04-01T05:42:38.450Z,78.10
2023-04-01T05:45:06.002Z,78.10
2023-04-01T05:47:32.848Z,78.00
2023-04-01T05:49:59.813Z,78.80
2023-04-01T05:52:26.652Z,78.10
2023-04-01T05:54:53.427Z,78.30
2023-04-01T05:57:20.515Z,78.40
2023-04-01T05:59:47.321Z,78.40
2023-04-01T06:02:14.169Z,78.50
2023-04-01T06:04:41.352Z,78.60
2023-04-01T06:07:15.309Z,78.40
2023-04-01T06:09:42.215Z,78.40
2023-04-01T06:12:09.053Z,78.50
2023-04-01T06:14:51.652Z,78.60
2023-04-01T06:17:29.476Z,78.80
2023-04-01T06:20:13.184Z,78.80
2023-04-01T06:22:45.960Z,78.80
2023-04-01T06:25:33.203Z,78.80
2023-04-01T06:28:08.464Z,78.80
2023-04-01T06:31:02.974Z,78.80
2023-04-01T06:33:54.196Z,78.60
2023-04-01T06:36:27.088Z,78.60
2023-04-01T06:39:19.491Z,78.70
2023-04-01T06:42:17.062Z,78.90
2023-04-01T06:45:22.441Z,78.80
2023-04-01T06:47:49.295Z,78.50
2023-04-01T06:50:28.208Z,78.50
2023-04-01T06:53:10.648Z,78.70
2023-04-01T06:55:45.086Z,78.80
2023-04-01T06:58:24.801Z,78.90
2023-04-01T07:01:03.464Z,78.50
2023-04-01T07:03:34.397Z,78.70
2023-04-01T07:06:04.188Z,78.50
2023-04-01T07:08:31.010Z,78.50
2023-04-01T07:11:07.842Z,78.60
2023-04-01T07:13:50.917Z,78.50
2023-04-01T07:16:40.096Z,78.80
2023-04-01T07:19:23.189Z,78.60
2023-04-01T07:22:06.316Z,78.50
2023-04-01T07:24:38.842Z,78.40
2023-04-01T07:27:07.061Z,78.50
2023-04-01T07:29:33.916Z,78.70
2023-04-01T07:32:16.074Z,78.70
2023-04-01T07:35:03.817Z,78.70
2023-04-01T07:37:36.508Z,78.80
2023-04-01T07:40:06.139Z,78.80
2023-04-01T07:43:02.111Z,78.90
2023-04-01T07:45:32.755Z,78.80
2023-04-01T07:48:15.638Z,78.70
2023-04-01T07:50:51.163Z,78.60
2023-04-01T07:53:37.871Z,78.50
2023-04-01T07:56:31.924Z,78.40
2023-04-01T07:59:39.760Z,78.50
2023-04-01T08:02:06.442Z,78.60
2023-04-01T08:04:47.280Z,78.40
2023-04-01T08:07:16.579Z,78.40
2023-04-01T08:09:55.348Z,78.60
2023-04-01T08:12:34.032Z,78.70
2023-04-01T08:15:07.175Z,78.50
2023-04-01T08:17:37.390Z,78.30
2023-04-01T08:20:36.419Z,78.00
2023-04-01T08:23:13.554Z,77.90
2023-04-01T08:26:06.099Z,78.10
2023-04-01T08:28:46.572Z,78.10
2023-04-01T08:31:13.977Z,78.00
2023-04-01T08:33:40.922Z,78.10
2023-04-01T08:36:18.475Z,77.80
2023-04-01T08:38:51.835Z,76.80
2023-04-01T08:41:39.948Z,76.80
2023-04-01T08:44:21.740Z,76.30
2023-04-01T08:47:06.906Z,76.20
2023-04-01T08:49:52.789Z,76.30
2023-04-01T08:53:09.971Z,75.80
2023-04-01T08:55:45.343Z,76.00
2023-04-01T08:58:48.298Z,75.50
2023-04-01T09:01:36.292Z,75.30
2023-04-01T09:04:16.193Z,75.20
2023-04-01T09:06:51.414Z,75.10
2023-04-01T09:09:38.655Z,75.10
2023-04-01T09:12:26.918Z,75.30
2023-04-01T09:15:32.079Z,75.00
2023-04-01T09:18:29.501Z,76.00
2023-04-01T09:21:17.431Z,75.00
2023-04-01T09:24:18.993Z,75.00
2023-04-01T09:26:53.038Z,74.60
2023-04-01T09:29:36.168Z,74.70
2023-04-01T09:32:06.978Z,74.50
2023-04-01T09:34:58.779Z,74.30
2023-04-01T09:37:50.604Z,74.70
2023-04-01T09:40:19.531Z,74.70
2023-04-01T09:43:19.075Z,74.70
2023-04-01T09:45:50.234Z,74.30
2023-04-01T09:48:36.791Z,74.50
2023-04-01T09:51:22.384Z,74.60
2023-04-01T09:53:49.166Z,74.70
2023-04-01T09:56:46.490Z,74.70
2023-04-01T09:59:41.264Z,74.60
2023-04-01T10:02:20.013Z,74.50
2023-04-01T10:04:49.842Z,74.50
2023-04-01T10:07:37.721Z,74.30
2023-04-01T10:10:09.057Z,74.30
2023-04-01T10:12:36.535Z,73.60
2023-04-01T10:15:29.628Z,73.40
2023-04-01T10:18:04.286Z,73.50
2023-04-01T10:21:02.228Z,71.80
2023-04-01T10:23:43.968Z,72.10
2023-04-01T10:26:22.316Z,72.50
2023-04-01T10:28:51.849Z,70.80
2023-04-01T10:31:48.981Z,70.60
2023-04-01T10:35:02.353Z,71.30
2023-04-01T10:37:47.146Z,70.70
2023-04-01T10:40:21.633Z,70.60
2023-04-01T10:43:21.249Z,70.50
2023-04-01T10:46:03.056Z,70.20
2023-04-01T10:48:51.430Z,69.80
2023-04-01T10:52:11.963Z,69.60
2023-04-01T10:55:21.999Z,69.80
2023-04-01T10:58:00.845Z,68.90
2023-04-01T11:00:40.495Z,69.10
2023-04-01T11:03:13.484Z,69.40
2023-04-01T11:06:08.862Z,68.80
2023-04-01T11:08:56.765Z,68.40
2023-04-01T11:11:53.009Z,68.10
2023-04-01T11:31:35.427Z,68.10
2023-04-01T11:34:18.223Z,67.40
2023-04-01T11:37:06.815Z,67.10
2023-04-01T11:39:58.083Z,66.90
2023-04-01T11:42:56.472Z,66.90
2023-04-01T11:45:46.723Z,67.10
2023-04-01T11:48:13.439Z,66.70
2023-04-01T11:50:56.197Z,66.20
2023-04-01T11:53:41.893Z,66.40
2023-04-01T11:56:26.973Z,66.10
2023-04-01T11:59:15.479Z,65.40
2023-04-01T12:01:55.384Z,65.10
2023-04-01T12:04:28.429Z,65.00
2023-04-01T12:07:33.567Z,65.20
2023-04-01T12:10:12.242Z,65.60
2023-04-01T12:13:05.743Z,65.20
2023-04-01T12:15:32.717Z,65.40
2023-04-01T12:18:09.732Z,65.10
2023-04-01T12:20:58.091Z,65.00
2023-04-01T12:23:48.647Z,65.10
2023-04-01T12:26:42.996Z,64.10
2023-04-01T12:29:18.692Z,63.50
2023-04-01T12:31:59.199Z,63.40
2023-04-01T12:34:49.389Z,62.20
2023-04-01T12:37:36.442Z,63.20
2023-04-01T12:40:22.144Z,63.40
2023-04-01T12:42:54.723Z,63.40
2023-04-01T12:45:35.415Z,64.10
2023-04-01T12:48:30.905Z,60.60
2023-04-01T12:51:17.693Z,60.70
2023-04-01T12:54:09.171Z,60.40
2023-04-01T12:57:04.098Z,58.80
2023-04-01T13:00:00.125Z,58.20
2023-04-01T13:02:57.578Z,57.80
2023-04-01T13:05:48.308Z,58.20
2023-04-01T13:08:27.952Z,59.00
2023-04-01T13:10:58.029Z,58.00
2023-04-01T13:13:48.007Z,57.70
2023-04-01T13:16:23.704Z,58.10
2023-04-01T13:19:17.544Z,57.40
2023-04-01T13:22:05.911Z,58.20
2023-04-01T13:24:38.247Z,57.90
2023-04-01T13:27:22.736Z,57.60
2023-04-01T13:30:03.120Z,58.20
2023-04-01T13:32:44.630Z,58.30
2023-04-01T13:35:14.757Z,56.80
2023-04-01T13:38:07.479Z,57.30
2023-04-01T13:41:01.750Z,57.50
2023-04-01T13:43:36.816Z,58.10
2023-04-01T13:46:06.167Z,57.90
2023-04-01T13:48:57.354Z,58.40
2023-04-01T13:51:24.198Z,58.70
2023-04-01T13:54:08.439Z,58.50
2023-04-01T13:57:00.872Z,57.80
2023-04-01T13:59:33.329Z,57.50
2023-04-01T14:02:21.380Z,57.90
2023-04-01T14:04:58.381Z,58.10
2023-04-01T14:07:56.292Z,58.60
2023-04-01T14:10:41.441Z,58.70
2023-04-01T14:13:28.821Z,59.00
2023-04-01T14:16:13.255Z,59.20
2023-04-01T14:19:04.323Z,58.30
2023-04-01T14:21:44.660Z,57.50
2023-04-01T14:24:38.489Z,57.50
2023-04-01T14:27:26.558Z,57.90
2023-04-01T14:29:59.464Z,58.50
2023-04-01T14:32:45.359Z,58.00
2023-04-01T14:35:44.307Z,58.20
2023-04-01T14:38:30.079Z,58.70
2023-04-01T14:41:33.761Z,58.70
2023-04-01T14:44:18.525Z,58.90
2023-04-01T14:46:47.819Z,58.10
2023-04-01T14:49:38.211Z,56.80
2023-04-01T14:52:22.938Z,56.70
2023-04-01T14:54:50.052Z,56.30
2023-04-01T14:57:19.680Z,56.70
2023-04-01T14:59:53.249Z,57.60
2023-04-01T15:02:25.375Z,56.80
2023-04-01T15:05:11.644Z,56.70
2023-04-01T15:07:44.391Z,56.30
2023-04-01T15:10:29.907Z,56.20
2023-04-01T15:13:28.381Z,56.50
2023-04-01T15:16:10.203Z,56.20
2023-04-01T15:19:04.405Z,56.20
2023-04-01T15:21:46.146Z,56.00
2023-04-01T15:24:16.116Z,55.00
2023-04-01T15:27:06.620Z,55.50
2023-04-01T15:29:51.279Z,55.50
2023-04-01T15:32:48.544Z,55.70
2023-04-01T15:35:44.937Z,55.60
2023-04-01T15:38:33.423Z,54.80
2023-04-01T15:41:13.208Z,55.40
2023-04-01T15:43:45.030Z,54.20
2023-04-01T15:46:44.243Z,55.00
2023-04-01T15:49:26.083Z,55.00
2023-04-01T15:52:11.140Z,54.20
2023-04-01T15:55:07.876Z,54.80
2023-04-01T15:57:49.231Z,55.00
2023-04-01T16:00:19.041Z,55.20
2023-04-01T16:03:13.050Z,55.50
2023-04-01T16:05:53.605Z,55.60
2023-04-01T16:08:41.744Z,55.70
2023-04-01T16:11:42.791Z,55.40
2023-04-01T16:14:15.789Z,55.60
2023-04-01T16:17:05.624Z,55.70
2023-04-01T16:19:35.306Z,55.90
2023-04-01T16:22:28.169Z,56.80
2023-04-01T16:25:07.104Z,57.60
2023-04-01T16:27:42.207Z,58.10
2023-04-01T16:30:33.768Z,58.50
2023-04-01T16:33:19.691Z,58.60
2023-04-01T16:35:55.823Z,59.00
2023-04-01T16:38:30.892Z,59.50
2023-04-01T16:41:03.607Z,59.60
2023-04-01T16:43:48.871Z,59.80
2023-04-01T16:46:37.563Z,59.70
2023-04-01T16:49:12.890Z,59.70
2023-04-01T16:52:09.394Z,59.60
2023-04-01T16:54:44.440Z,59.80
2023-04-01T16:57:11.834Z,59.80
2023-04-01T17:00:05.014Z,59.70
2023-04-01T17:02:37.562Z,59.90
2023-04-01T17:05:09.999Z,60.20
2023-04-01T17:08:03.468Z,60.40
2023-04-01T17:10:35.031Z,60.60
2023-04-01T17:13:20.699Z,60.70
2023-04-01T17:16:06.153Z,60.70
2023-04-01T17:19:20.887Z,60.40
2023-04-01T17:22:05.641Z,61.20
2023-04-01T17:24:52.829Z,61.40
2023-04-01T17:27:37.538Z,61.40
2023-04-01T17:30:04.484Z,62.30
2023-04-01T17:32:40.237Z,62.80
2023-04-01T17:35:27.734Z,63.50
2023-04-01T17:38:01.457Z,63.70
2023-04-01T17:40:46.575Z,63.60
2023-04-01T17:43:39.915Z,63.90
2023-04-01T17:46:40.836Z,63.90
2023-04-01T17:49:47.293Z,64.20
2023-04-01T17:52:23.269Z,64.60
2023-04-01T17:54:58.347Z,64.70
2023-04-01T17:57:33.981Z,65.50
2023-04-01T18:00:13.158Z,64.60
2023-04-01T18:03:05.627Z,64.60
2023-04-01T18:05:47.009Z,64.50
2023-04-01T18:08:35.225Z,64.50
2023-04-01T18:11:27.940Z,64.60
2023-04-01T18:14:19.592Z,64.50
2023-04-01T18:17:01.410Z,64.70
2023-04-01T18:19:40.947Z,64.80
2023-04-01T18:22:17.646Z,64.90
2023-04-01T18:24:56.987Z,64.90
2023-04-01T18:27:25.432Z,65.20
2023-04-01T18:29:56.305Z,65.50
2023-04-01T18:32:27.890Z,65.30
2023-04-01T18:35:20.715Z,65.30
2023-04-01T18:38:03.929Z,65.10
2023-04-01T18:40:39.246Z,65.10
2023-04-01T18:43:31.282Z,65.60
2023-04-01T18:46:03.237Z,65.30
2023-04-01T18:48:51.159Z,65.50
2023-04-01T18:51:44.748Z,65.70
2023-04-01T18:54:20.874Z,65.90
2023-04-01T18:56:47.804Z,66.00
2023-04-01T18:59:31.161Z,66.00
2023-04-01T19:02:40.616Z,66.00
2023-04-01T19:05:31.788Z,66.00
2023-04-01T19:08:29.499Z,66.10
2023-04-01T19:11:11.914Z,66.00
2023-04-01T19:14:07.109Z,66.00
2023-04-01T19:16:51.622Z,66.10
2023-04-01T19:19:37.349Z,66.30
2023-04-01T19:22:42.169Z,66.20
2023-04-01T19:25:18.061Z,66.40
2023-04-01T19:27:52.955Z,66.50
2023-04-01T19:30:37.949Z,66.50
2023-04-01T19:33:28.942Z,66.40
2023-04-01T19:36:08.128Z,66.10
2023-04-01T19:38:43.192Z,66.30
2023-04-01T19:41:28.909Z,66.40
2023-04-01T19:44:20.002Z,66.30
2023-04-01T19:46:55.694Z,66.40
2023-04-01T19:49:28.455Z,67.60
2023-04-01T19:52:20.791Z,67.80
2023-04-01T19:54:50.978Z,67.90
2023-04-01T19:57:26.828Z,68.00
2023-04-01T19:59:59.517Z,67.90
2023-04-01T20:02:41.421Z,68.10
2023-04-01T20:05:29.393Z,68.00
2023-04-01T20:08:01.334Z,68.10
2023-04-01T20:10:36.534Z,68.30
2023-04-01T20:13:10.008Z,68.30
2023-04-01T20:15:38.908Z,68.40
2023-04-01T20:18:13.855Z,68.40
2023-04-01T20:20:40.705Z,68.20
2023-04-01T20:23:36.566Z,68.40
2023-04-01T20:26:14.179Z,68.30
2023-04-01T20:28:45.319Z,68.50
2023-04-01T20:31:31.257Z,68.60
2023-04-01T20:34:27.957Z,68.40
2023-04-01T20:37:32.386Z,68.40
2023-04-01T20:40:28.400Z,68.60
2023-04-01T20:43:20.304Z,68.90
2023-04-01T20:45:56.119Z,68.70
2023-04-01T20:48:47.075Z,68.80
2023-04-01T20:51:15.692Z,68.80
2023-04-01T20:54:20.091Z,68.90
2023-04-01T20:57:05.846Z,69.00
2023-04-01T21:00:01.634Z,68.90
2023-04-01T21:02:37.180Z,69.10
2023-04-01T21:05:40.949Z,69.40
2023-04-01T21:08:42.941Z,69.40
2023-04-01T21:11:46.856Z,69.30
2023-04-01T21:14:46.013Z,69.30
2023-04-01T21:17:15.749Z,69.30
2023-04-01T21:20:13.143Z,69.30
2023-04-01T21:23:10.289Z,69.40
2023-04-01T21:25:58.114Z,69.30
2023-04-01T21:28:28.851Z,69.40
2023-04-01T21:31:09.585Z,69.40
2023-04-01T21:33:46.030Z,69.30
2023-04-01T21:36:36.389Z,69.50
2023-04-01T21:39:11.948Z,69.60
2023-04-01T21:41:50.771Z,69.50
2023-04-01T21:44:19.877Z,69.10
2023-04-01T21:46:56.851Z,69.10
2023-04-01T21:49:53.843Z,69.10
2023-04-01T21:52:53.006Z,69.40
2023-04-01T21:55:40.063Z,69.50
2023-04-01T21:58:09.849Z,69.60
2023-04-01T22:00:40.593Z,69.70
2023-04-01T22:03:30.294Z,69.80
2023-04-01T22:06:09.592Z,69.70
2023-04-01T22:08:58.020Z,69.60
2023-04-01T22:11:33.689Z,69.70
2023-04-01T22:14:09.309Z,69.80
2023-04-01T22:16:55.070Z,70.00
2023-04-01T22:19:43.877Z,70.20
2023-04-01T22:22:32.207Z,70.00
2023-04-01T22:25:23.810Z,70.00
2023-04-01T22:27:57.009Z,70.10
2023-04-01T22:30:40.402Z,70.20
2023-04-01T22:33:18.166Z,70.10
2023-04-01T22:36:13.564Z,70.20
2023-04-01T22:39:01.472Z,70.30
2023-04-01T22:41:40.094Z,70.30
2023-04-01T22:44:07.033Z,70.40
2023-04-01T22:46:33.768Z,70.50
2023-04-01T22:49:23.483Z,70.20
2023-04-01T22:52:12.570Z,70.30
2023-04-01T22:54:45.043Z,70.50
2023-04-01T22:57:14.002Z,70.40
2023-04-01T22:59:47.701Z,70.60
2023-04-01T23:02:20.684Z,70.50
2023-04-01T23:04:50.922Z,70.70
2023-04-01T23:07:55.084Z,70.60
2023-04-01T23:10:30.761Z,70.50
2023-04-01T23:12:59.556Z,70.40
2023-04-01T23:15:27.189Z,70.60
2023-04-01T23:18:15.223Z,70.70
2023-04-01T23:20:49.744Z,70.80
2023-04-01T23:23:33.618Z,70.80
2023-04-01T23:26:08.653Z,70.70
2023-04-01T23:28:55.140Z,70.80
2023-04-01T23:31:40.657Z,70.90
2023-04-01T23:34:13.656Z,70.90
2023-04-01T23:36:45.560Z,71.00
2023-04-01T23:39:38.089Z,71.00
2023-04-01T23:42:13.781Z,71.00
2023-04-01T23:44:40.754Z,71.10
2023-04-01T23:47:10.013Z,71.20
2023-04-01T23:49:57.920Z,71.50
2023-04-01T23:52:29.062Z,71.60
2023-04-01T23:54:58.361Z,71.70
2023-04-01T23:57:31.361Z,72.20
